Hancock, Wisconsin
Current Conditions -  °F | °C
As of 8:56 AM on Monday 22 Dec 2014 (Local Time) from KY50 Reporting Station
Haze Haze  
Wind Chill: 27°   Ceiling: 800
Heat Index: 34°   Visibility: 3mi
Dew Point: 33°   Wind: 8mph
Humidity: 96%   Direction: 120°ESE
Pressure: 29.86"   Gusts: NA
Location:  44.13°N, 89.52°W
Report Text: KY50 221456Z AUTO 12007KT 3SM BR OVC008 01/01 A2986 RMK AO2 TSNO 58005 T00110005 CIG 007V011 SLP117
Loading
Personal Weather Stations






























Interactive Weather Map New forecast layout! Learn more

10-Day Weather Forecast

Advertisements
Track Severe Weather on mobile